Hlavní strana
METAR-TAF:

METAR-TAF

Letiště :

Timimoun, Alžírsko

zeměpisná šířka: 29-15N, zeměpisná délka: 000-17E, výška: 312 m

Aktuální stav počasí

Zpráva byla vytvořena před 36 minutami, v 10:00 UTC
Východoseverovýchodní vítr 4 kt
Teplota 30°C
Vlhkost vzduchu 12%
Tlak 1015 hPa
Viditelnost 10 km a více
Žádná oblačnost pod 1500 m, nevyskytují se cumulonimby.

METAR: DAUT 101000Z 07004KT CAVOK 30/M02 Q1015

Čas: 11:36 (10:36 UTC)

Předpověď počasí

Zpráva byla vytvořena před 2 hodinami a 36 minutami, v 08:00 UTC
Předpověď platná od 10 v 09 UTC do 10 v 18 UTC
Východní vítr 12 kt
Viditelnost 10 km a více
Žádná oblačnost pod 1500 m, nevyskytují se cumulonimby.
Změna
od 10 v 11 UTC do 10 v 14 UTC
Jihozápadní vítr 10 kt

TAF: DAUT 100800Z 1009/1018 08012KT CAVOK BECMG 1011/1014 22010KT

Stav a předpovědi počasí z více než 4 000 letišť (zprávy METAR a TAF).

Červené a žluté tečky na mapě představují dostupné meteorologické stanice.

Když kurzor umístíte na tečku, zobrazí se název stanice.

Pak kliknutím zobrazíte stav a předpověď počasí.

Chcete-li změnit mapu, kliknutím na zelené tlačítko se znaménkem +mapu přiblížíte, kliknutím na zelené tlačítko se znaménkem – mapu oddálíte a kliknutím na zelené šipky přejdete na sousední mapy.


METAR-TAF: